Time;durP1;ratioP1;P1;durP2;ratioP2;P2;SDS_P1;SDS_P2;PMS_P1;PMS_P2;Temp;Humidity;BMP_temperature;BMP_pressure;BME280_temperature;BME280_humidity;BME280_pressure;Samples;Min_cycle;Max_cycle;Signal;HPM_P1;HPM_P2
2022/04/26 03:36:58;;;;;;;12.07;8.37;;;7.10;99.90;;;;;;5073627;28;20192;-84
2022/04/26 03:39:25;;;;;;;21.87;7.57;;;7.10;99.90;;;;;;5077547;28;20243;-84
2022/04/26 03:41:52;;;;;;;12.37;7.30;;;7.10;99.90;;;;;;5077558;28;20197;-84
2022/04/26 03:44:18;;;;;;;15.37;7.30;;;7.10;99.90;;;;;;5076612;28;20196;-84
2022/04/26 03:46:45;;;;;;;11.10;6.93;;;7.10;99.90;;;;;;5084723;28;20200;-83
2022/04/26 03:49:13;;;;;;;12.63;7.03;;;7.00;99.90;;;;;;5097969;28;20196;-82
2022/04/26 03:51:40;;;;;;;12.90;7.17;;;7.00;99.90;;;;;;5097669;28;20490;-83
2022/04/26 03:54:07;;;;;;;12.47;6.70;;;7.00;99.90;;;;;;5072173;28;20590;-83
2022/04/26 03:56:34;;;;;;;13.47;7.50;;;7.00;99.90;;;;;;5057301;28;20269;-84
2022/04/26 03:59:00;;;;;;;13.30;7.10;;;7.00;99.90;;;;;;5056715;28;20202;-84
2022/04/26 04:01:27;;;;;;;16.43;7.27;;;7.00;99.90;;;;;;5057444;28;20244;-83
2022/04/26 04:03:54;;;;;;;14.17;7.77;;;7.00;99.90;;;;;;5073072;28;20216;-82
2022/04/26 04:06:22;;;;;;;12.40;6.40;;;7.00;99.90;;;;;;5076434;28;20194;-85
2022/04/26 04:08:49;;;;;;;14.37;7.37;;;7.00;99.90;;;;;;5076687;28;20197;-84
2022/04/26 04:11:16;;;;;;;14.17;7.37;;;6.90;99.90;;;;;;5076871;28;20194;-84
2022/04/26 04:13:43;;;;;;;16.10;7.47;;;7.00;99.90;;;;;;5059457;28;20210;-83
2022/04/26 04:16:09;;;;;;;10.73;6.97;;;7.00;99.90;;;;;;5056907;28;20283;-84
2022/04/26 04:21:27;;;;;;;13.87;8.63;;;6.90;99.90;;;;;;5043690;28;20227;-84
2022/04/26 04:23:54;;;;;;;11.30;7.70;;;6.90;99.90;;;;;;5076699;28;20198;-85
2022/04/26 04:26:21;;;;;;;11.77;7.50;;;6.80;99.90;;;;;;5076263;28;20550;-85
2022/04/26 04:28:48;;;;;;;16.10;7.90;;;6.90;99.90;;;;;;5076156;28;20268;-82
2022/04/26 04:31:14;;;;;;;19.30;7.87;;;6.90;99.90;;;;;;5062371;28;20213;-83
2022/04/26 04:33:43;;;;;;;14.40;7.60;;;6.90;99.90;;;;;;5056492;28;20198;-84
2022/04/26 04:36:10;;;;;;;13.13;7.40;;;6.90;99.90;;;;;;5055757;28;20226;-82
2022/04/26 04:38:38;;;;;;;11.70;7.40;;;6.90;99.90;;;;;;5057053;28;20201;-82
2022/04/26 04:41:06;;;;;;;12.87;7.80;;;7.00;99.90;;;;;;5074813;28;20228;-83
2022/04/26 04:43:33;;;;;;;9.97;7.53;;;6.90;99.90;;;;;;5075901;28;20239;-81
2022/04/26 04:45:59;;;;;;;13.60;7.20;;;6.90;99.90;;;;;;5075907;28;20250;-82
2022/04/26 04:48:26;;;;;;;16.83;7.53;;;6.90;99.90;;;;;;5064901;28;20224;-82
2022/04/26 04:50:53;;;;;;;14.77;7.40;;;7.00;99.90;;;;;;5055981;28;20549;-82
2022/04/26 04:53:21;;;;;;;15.13;7.80;;;6.90;99.90;;;;;;5055818;28;20193;-81
2022/04/26 04:55:49;;;;;;;14.20;7.70;;;6.90;99.90;;;;;;5072391;28;20225;-82
2022/04/26 04:58:16;;;;;;;13.43;8.63;;;6.90;99.90;;;;;;5076046;28;20190;-83
2022/04/26 05:00:42;;;;;;;10.33;7.20;;;6.90;99.90;;;;;;5076201;28;20232;-84
2022/04/26 05:03:09;;;;;;;15.27;7.83;;;6.90;99.90;;;;;;5075105;28;20518;-83
2022/04/26 05:05:36;;;;;;;15.67;7.93;;;6.90;99.90;;;;;;5075950;28;20204;-82
2022/04/26 05:08:04;;;;;;;15.77;8.63;;;6.90;99.90;;;;;;5076128;28;20212;-81
2022/04/26 05:10:33;;;;;;;16.50;8.77;;;7.00;99.90;;;;;;5074912;28;20208;-82
2022/04/26 05:13:01;;;;;;;13.33;7.60;;;7.00;99.90;;;;;;5076118;28;20205;-84
2022/04/26 05:15:28;;;;;;;15.50;8.50;;;7.00;99.90;;;;;;5075881;28;20250;-84
2022/04/26 05:17:55;;;;;;;13.57;8.60;;;7.00;99.90;;;;;;5075086;28;20231;-85
2022/04/26 05:20:22;;;;;;;12.63;7.97;;;7.10;99.90;;;;;;5075836;28;20288;-80
2022/04/26 05:25:45;;;;;;;17.10;8.67;;;7.10;99.90;;;;;;5069832;28;20198;-83
2022/04/26 05:28:13;;;;;;;17.90;9.87;;;7.20;99.90;;;;;;5055552;28;20200;-81
2022/04/26 05:30:40;;;;;;;14.53;8.47;;;7.20;99.90;;;;;;5055143;28;20202;-83
2022/04/26 05:33:07;;;;;;;15.27;8.97;;;7.20;99.90;;;;;;5055498;28;20206;-83
2022/04/26 05:35:33;;;;;;;20.93;10.40;;;7.20;99.90;;;;;;5065886;28;20231;-82
2022/04/26 05:38:00;;;;;;;13.70;9.43;;;7.30;99.90;;;;;;5075136;28;20200;-81
2022/04/26 05:40:27;;;;;;;17.17;9.97;;;7.30;99.90;;;;;;5074998;28;20197;-84
2022/04/26 05:42:54;;;;;;;19.40;10.23;;;7.40;99.90;;;;;;5075286;28;20193;-83
2022/04/26 05:45:23;;;;;;;17.33;9.37;;;7.40;99.90;;;;;;5074560;28;20534;-85
2022/04/26 05:47:50;;;;;;;18.53;9.13;;;7.50;99.90;;;;;;5074022;28;20561;-82
2022/04/26 05:50:17;;;;;;;18.97;9.70;;;7.60;99.90;;;;;;5075234;28;20196;-82
2022/04/26 05:52:44;;;;;;;16.10;8.00;;;7.70;99.90;;;;;;5073816;28;20205;-81
2022/04/26 05:55:11;;;;;;;16.27;7.87;;;7.70;99.90;;;;;;5075418;28;20225;-83
2022/04/26 05:57:38;;;;;;;15.37;8.47;;;7.80;99.90;;;;;;5075611;28;20208;-81
2022/04/26 06:00:07;;;;;;;20.77;9.10;;;7.80;99.90;;;;;;5074565;28;20905;-82
2022/04/26 06:02:35;;;;;;;15.50;8.40;;;7.80;99.90;;;;;;5060281;28;20206;-82
2022/04/26 06:05:03;;;;;;;11.87;6.80;;;7.90;99.90;;;;;;5054805;28;20198;-81
2022/04/26 06:07:29;;;;;;;14.80;6.87;;;8.00;99.90;;;;;;5056226;28;20289;-81
2022/04/26 06:09:56;;;;;;;13.53;6.97;;;8.10;99.90;;;;;;5059176;28;20210;-82
2022/04/26 06:12:26;;;;;;;13.20;6.40;;;8.20;99.90;;;;;;5059365;28;20201;-80
2022/04/26 06:14:53;;;;;;;8.57;6.13;;;8.30;99.90;;;;;;5058945;28;20201;-82
2022/04/26 06:17:20;;;;;;;16.30;6.47;;;8.40;99.90;;;;;;5062304;28;20221;-82
2022/04/26 06:19:48;;;;;;;9.80;6.20;;;8.50;99.90;;;;;;5078399;28;20212;-85
2022/04/26 06:22:15;;;;;;;13.63;6.70;;;8.60;99.90;;;;;;5078413;28;20554;-82
2022/04/26 06:24:42;;;;;;;11.63;6.70;;;8.80;99.90;;;;;;5078554;28;20201;-81
2022/04/26 06:27:09;;;;;;;15.80;6.20;;;8.90;99.90;;;;;;5077980;28;20202;-81
2022/04/26 06:29:36;;;;;;;11.27;5.63;;;9.00;99.90;;;;;;5078764;28;20213;-82
2022/04/26 06:32:03;;;;;;;13.60;5.80;;;9.20;99.90;;;;;;5078064;28;20224;-82
2022/04/26 06:34:30;;;;;;;16.77;6.30;;;9.30;99.90;;;;;;5078367;28;20193;-84
2022/04/26 06:36:59;;;;;;;14.00;6.17;;;9.50;99.90;;;;;;5078225;28;20240;-83
2022/04/26 06:39:25;;;;;;;10.73;5.97;;;9.50;99.90;;;;;;5078310;28;20515;-83
2022/04/26 06:41:52;;;;;;;18.73;6.57;;;9.70;99.90;;;;;;5061281;28;20217;-80
2022/04/26 06:44:19;;;;;;;12.40;6.23;;;10.00;99.90;;;;;;5058335;28;20196;-83
2022/04/26 06:46:46;;;;;;;12.93;5.37;;;10.30;99.90;;;;;;5058263;28;20198;-83
2022/04/26 06:49:13;;;;;;;11.53;4.77;;;10.50;99.90;;;;;;5060303;28;20190;-86
2022/04/26 06:51:43;;;;;;;12.13;5.73;;;10.80;99.90;;;;;;5078124;28;20212;-83
2022/04/26 06:54:12;;;;;;;12.63;5.10;;;11.00;99.90;;;;;;5078040;28;20209;-84
2022/04/26 06:56:40;;;;;;;9.53;5.23;;;11.30;99.90;;;;;;5077161;28;20213;-81
2022/04/26 06:59:07;;;;;;;8.03;4.23;;;11.40;99.90;;;;;;5078404;28;20193;-84
2022/04/26 07:01:33;;;;;;;9.83;4.47;;;11.60;99.90;;;;;;5076706;28;20228;-79
2022/04/26 07:04:00;;;;;;;10.97;4.33;;;11.70;99.90;;;;;;5077835;28;20185;-84
2022/04/26 07:06:30;;;;;;;7.20;3.43;;;11.70;99.90;;;;;;5077967;28;20216;-85
2022/04/26 07:08:57;;;;;;;6.53;3.73;;;11.80;99.90;;;;;;5077187;28;20190;-83
2022/04/26 07:11:25;;;;;;;5.70;3.83;;;11.90;99.90;;;;;;5077317;28;20203;-81
2022/04/26 07:13:52;;;;;;;7.60;3.63;;;12.00;99.90;;;;;;5077686;28;20205;-81
2022/04/26 07:16:19;;;;;;;5.73;2.97;;;12.20;99.90;;;;;;5076859;28;20267;-86
2022/04/26 07:18:46;;;;;;;5.60;3.20;;;12.50;99.90;;;;;;5075960;28;20205;-85
2022/04/26 07:21:13;;;;;;;8.00;4.10;;;12.60;99.90;;;;;;5077517;28;20854;-80
2022/04/26 07:23:40;;;;;;;6.07;2.90;;;12.60;99.90;;;;;;5077115;28;20683;-81
2022/04/26 07:26:06;;;;;;;8.43;3.77;;;12.80;99.90;;;;;;5077448;28;20202;-83
2022/04/26 07:28:35;;;;;;;12.80;4.17;;;12.80;99.90;;;;;;5077260;28;20213;-82
2022/04/26 07:31:01;;;;;;;5.60;2.80;;;12.90;99.90;;;;;;5076501;28;20596;-83
2022/04/26 07:36:13;;;;;;;8.17;3.00;;;13.20;99.90;;;;;;5077435;28;20324;-85
2022/04/26 07:38:39;;;;;;;3.93;2.83;;;13.30;99.90;;;;;;5076821;28;20584;-87
2022/04/26 07:41:07;;;;;;;4.67;3.00;;;13.30;99.90;;;;;;5077668;28;20209;-83
2022/04/26 07:43:36;;;;;;;6.77;2.77;;;13.10;99.90;;;;;;5077507;28;20296;-87
2022/04/26 07:46:02;;;;;;;5.23;2.50;;;13.20;99.90;;;;;;5077173;28;20189;-83
2022/04/26 07:48:29;;;;;;;10.53;4.20;;;13.00;99.90;;;;;;5058286;28;20202;-83
2022/04/26 07:50:56;;;;;;;4.70;2.90;;;13.30;99.90;;;;;;5056719;28;20201;-86
2022/04/26 07:53:25;;;;;;;6.97;2.80;;;13.40;99.90;;;;;;5067652;28;20204;-83
2022/04/26 07:55:52;;;;;;;8.70;3.60;;;13.40;99.90;;;;;;5077730;28;20217;-83
2022/04/26 07:58:19;;;;;;;6.67;2.90;;;13.60;99.90;;;;;;5076768;28;20203;-81
2022/04/26 08:00:47;;;;;;;8.83;3.00;;;13.60;99.90;;;;;;5070143;28;20463;-83
2022/04/26 08:03:16;;;;;;;7.40;3.00;;;13.60;99.90;;;;;;5074310;28;20555;-85
2022/04/26 08:05:43;;;;;;;5.23;3.00;;;13.70;99.90;;;;;;5058170;28;20233;-84
2022/04/26 08:08:09;;;;;;;5.20;3.43;;;13.30;99.90;;;;;;5057164;28;20887;-83
2022/04/26 08:10:36;;;;;;;8.67;3.43;;;13.40;99.90;;;;;;5057933;28;20202;-84
2022/04/26 08:13:03;;;;;;;6.00;3.60;;;13.50;99.90;;;;;;5083900;28;20231;-84
2022/04/26 08:15:30;;;;;;;6.30;3.40;;;13.70;99.90;;;;;;5096418;28;20189;-85
2022/04/26 08:17:59;;;;;;;6.60;3.33;;;14.00;99.90;;;;;;5096366;28;20196;-84
2022/04/26 08:20:26;;;;;;;6.77;3.47;;;14.50;99.90;;;;;;5096123;28;20234;-81
2022/04/26 08:22:53;;;;;;;5.70;3.30;;;15.00;99.90;;;;;;5068783;28;20285;-86
2022/04/26 08:28:04;;;;;;;3.67;2.80;;;14.80;99.90;;;;;;5096514;28;20588;-83
2022/04/26 08:30:31;;;;;;;4.57;3.00;;;14.20;99.90;;;;;;5096003;28;20208;-85
2022/04/26 08:32:59;;;;;;;3.63;2.97;;;14.40;99.90;;;;;;5060244;28;20537;-79
2022/04/26 08:35:28;;;;;;;7.07;3.03;;;14.50;99.90;;;;;;5055757;28;20213;-79
2022/04/26 08:37:55;;;;;;;3.80;2.50;;;14.90;99.90;;;;;;5055494;28;20202;-83
2022/04/26 08:40:22;;;;;;;3.77;2.73;;;15.00;99.90;;;;;;5062453;28;20224;-85
2022/04/26 08:42:51;;;;;;;5.47;3.43;;;15.20;99.90;;;;;;5070196;28;20205;-80
2022/04/26 08:45:20;;;;;;;6.70;3.20;;;15.00;99.90;;;;;;5094508;28;20325;-84
2022/04/26 08:53:21;;;;;;;4.27;2.90;;;13.80;99.90;;;;;;5076506;28;20196;-83
2022/04/26 08:55:49;;;;;;;5.03;2.93;;;13.50;99.90;;;;;;5076212;28;20200;-85
2022/04/26 08:58:18;;;;;;;4.93;2.97;;;13.40;99.90;;;;;;5075414;28;20201;-84
2022/04/26 09:01:09;;;;;;;8.60;4.40;;;13.20;99.90;;;;;;5063102;28;20241;-82
2022/04/26 09:03:38;;;;;;;7.60;3.27;;;13.20;99.90;;;;;;5061281;28;20193;-81
2022/04/26 09:06:08;;;;;;;4.53;2.83;;;13.20;99.90;;;;;;5083509;28;20207;-81
2022/04/26 09:08:36;;;;;;;4.53;2.60;;;13.10;99.90;;;;;;5079961;28;20215;-83
2022/04/26 09:11:03;;;;;;;3.40;2.30;;;13.50;99.90;;;;;;5077652;28;20212;-83
2022/04/26 09:13:39;;;;;;;4.33;2.80;;;13.70;99.90;;;;;;5078377;28;20513;-82
2022/04/26 09:16:16;;;;;;;6.10;2.80;;;13.70;99.90;;;;;;5055740;28;20245;-82
2022/04/26 09:18:52;;;;;;;4.23;2.63;;;13.70;99.90;;;;;;5038386;28;20197;-82
2022/04/26 09:21:21;;;;;;;4.93;2.63;;;13.50;99.90;;;;;;5055810;28;20201;-83
2022/04/26 09:23:48;;;;;;;8.60;3.70;;;13.30;99.90;;;;;;5059397;28;20201;-84
2022/04/26 09:26:17;;;;;;;4.73;2.50;;;13.40;99.90;;;;;;5075772;28;20194;-83
2022/04/26 09:28:46;;;;;;;3.10;2.20;;;13.60;99.90;;;;;;5075352;28;20193;-83
2022/04/26 09:31:21;;;;;;;5.27;2.70;;;13.90;99.90;;;;;;5063847;28;20206;-81
2022/04/26 09:33:51;;;;;;;3.57;2.60;;;14.20;99.90;;;;;;5055337;28;20205;-87
2022/04/26 09:36:19;;;;;;;5.83;2.97;;;14.40;99.90;;;;;;5055624;28;20229;-83
2022/04/26 09:38:52;;;;;;;5.07;2.80;;;14.70;99.90;;;;;;5055503;28;20237;-83
2022/04/26 09:41:20;;;;;;;6.43;3.10;;;14.70;99.90;;;;;;5055153;28;20213;-83
2022/04/26 09:43:57;;;;;;;11.80;3.57;;;14.70;99.90;;;;;;5058283;28;20198;-83
2022/04/26 09:46:23;;;;;;;3.67;2.60;;;14.70;99.90;;;;;;5059460;28;20226;-85
2022/04/26 09:48:53;;;;;;;3.60;2.40;;;15.00;99.90;;;;;;5062013;28;20484;-83
2022/04/26 09:51:19;;;;;;;4.17;2.43;;;15.00;99.90;;;;;;5058958;28;20205;-82
2022/04/26 09:53:46;;;;;;;3.70;2.80;;;15.00;99.90;;;;;;5059729;28;20198;-83
2022/04/26 09:56:15;;;;;;;4.73;2.70;;;15.00;99.90;;;;;;5077932;28;20220;-82
2022/04/26 09:58:44;;;;;;;7.85;3.33;;;15.00;99.90;;;;;;5078911;28;20209;-84
2022/04/26 10:01:14;;;;;;;5.30;2.70;;;15.00;99.90;;;;;;5079790;28;20255;-81
2022/04/26 10:03:44;;;;;;;7.60;3.23;;;15.10;99.90;;;;;;5079227;28;20209;-84
2022/04/26 10:06:16;;;;;;;3.13;2.83;;;15.40;99.90;;;;;;5079151;28;20205;-83
2022/04/26 10:08:43;;;;;;;4.43;2.80;;;15.70;99.90;;;;;;5075192;28;20251;-84
2022/04/26 10:11:10;;;;;;;4.10;2.27;;;15.80;99.90;;;;;;5070244;28;20264;-82
2022/04/26 10:13:40;;;;;;;3.73;2.37;;;15.50;99.90;;;;;;5075808;28;20251;-83
2022/04/26 10:16:08;;;;;;;4.90;2.72;;;15.70;99.90;;;;;;5059751;28;20239;-81
2022/04/26 10:18:39;;;;;;;6.03;2.67;;;15.90;99.90;;;;;;5058433;28;20202;-81
2022/04/26 10:21:07;;;;;;;5.13;2.57;;;15.70;99.90;;;;;;5077775;28;20259;-83
2022/04/26 10:24:07;;;;;;;6.03;2.60;;;15.50;99.90;;;;;;5078478;28;20201;-82
2022/04/26 10:26:35;;;;;;;4.70;2.72;;;15.70;99.90;;;;;;5073186;28;20205;-80
2022/04/26 10:29:13;;;;;;;4.45;2.47;;;15.50;99.90;;;;;;5078842;28;20189;-83
2022/04/26 10:31:43;;;;;;;5.22;2.40;;;15.30;99.90;;;;;;5078382;28;20258;-83
2022/04/26 10:34:27;;;;;;;7.60;2.57;;;15.30;99.90;;;;;;5079048;28;20189;-83
2022/04/26 10:36:56;;;;;;;6.77;2.53;;;14.90;99.90;;;;;;5078679;28;20270;-85
2022/04/26 10:39:25;;;;;;;5.07;2.43;;;14.50;99.90;;;;;;5058528;28;20248;-81
2022/04/26 10:41:53;;;;;;;3.80;2.20;;;14.20;99.90;;;;;;5058368;28;20194;-83
2022/04/26 10:44:26;;;;;;;4.77;2.77;;;14.20;99.90;;;;;;5058610;28;20198;-83
2022/04/26 10:47:24;;;;;;;4.55;2.17;;;14.50;99.90;;;;;;5061455;28;20201;-82
2022/04/26 10:49:52;;;;;;;4.97;3.20;;;14.80;99.90;;;;;;5070423;28;20224;-83
2022/04/26 10:52:49;;;;;;;3.83;2.40;;;15.20;99.90;;;;;;5078398;28;20224;-84
2022/04/26 10:55:18;;;;;;;3.73;2.43;;;15.40;99.90;;;;;;5078213;28;20255;-83
2022/04/26 10:57:48;;;;;;;3.13;2.47;;;15.70;99.90;;;;;;5078027;28;20221;-83
2022/04/26 11:00:20;;;;;;;5.60;2.38;;;15.90;99.90;;;;;;5078016;28;20229;-84
2022/04/26 11:02:48;;;;;;;5.22;2.10;;;15.90;99.90;;;;;;5077732;28;20220;-83
2022/04/26 11:05:17;;;;;;;3.08;2.13;;;16.00;99.90;;;;;;5078195;28;20193;-81
2022/04/26 11:07:46;;;;;;;3.63;2.20;;;16.10;99.90;;;;;;5058003;28;20598;-82
2022/04/26 11:10:15;;;;;;;3.67;2.15;;;16.20;99.90;;;;;;5058161;28;20209;-82
2022/04/26 11:12:43;;;;;;;2.90;2.15;;;16.30;99.90;;;;;;5070466;28;20201;-82
2022/04/26 11:15:11;;;;;;;3.78;2.42;;;16.40;99.90;;;;;;5077882;28;20300;-83
2022/04/26 11:17:41;;;;;;;5.15;2.13;;;16.40;99.90;;;;;;5078158;28;20221;-82
2022/04/26 11:20:13;;;;;;;3.42;2.28;;;16.50;99.90;;;;;;5077206;28;20209;-82
2022/04/26 11:22:45;;;;;;;5.20;2.47;;;16.30;99.90;;;;;;5077447;28;20193;-82
2022/04/26 11:28:03;;;;;;;7.35;2.28;;;16.40;99.90;;;;;;5076690;28;20208;-84
2022/04/26 11:30:31;;;;;;;2.80;2.30;;;16.30;99.90;;;;;;5057077;28;20202;-81
2022/04/26 11:33:02;;;;;;;4.30;2.43;;;16.10;99.90;;;;;;5057318;28;20229;-82
2022/04/26 11:35:29;;;;;;;3.00;1.90;;;15.90;99.90;;;;;;5057529;28;20194;-86
2022/04/26 11:37:57;;;;;;;2.85;2.03;;;15.80;99.90;;;;;;5063556;28;20270;-85
2022/04/26 11:40:26;;;;;;;6.75;3.20;;;15.80;99.90;;;;;;5077343;28;20650;-82
2022/04/26 11:42:54;;;;;;;4.75;2.50;;;15.90;99.90;;;;;;5067044;28;20210;-83
2022/04/26 11:45:21;;;;;;;2.47;2.13;;;15.80;99.90;;;;;;5057288;28;20205;-82
2022/04/26 11:47:49;;;;;;;5.55;2.22;;;15.70;99.90;;;;;;5092212;28;20197;-83
2022/04/26 11:50:22;;;;;;;4.35;2.20;;;15.70;99.90;;;;;;5087419;28;20581;-85
2022/04/26 11:52:51;;;;;;;4.32;2.33;;;15.70;99.90;;;;;;5077345;28;20207;-83
2022/04/26 11:55:26;;;;;;;2.90;1.95;;;15.80;99.90;;;;;;5057886;28;20205;-82
2022/04/26 11:57:54;;;;;;;3.25;1.75;;;16.00;99.90;;;;;;5056737;28;20221;-82
2022/04/26 12:00:23;;;;;;;3.90;1.98;;;16.10;99.90;;;;;;5056949;28;20531;-83
2022/04/26 12:02:50;;;;;;;3.35;2.05;;;16.00;99.90;;;;;;5075791;28;20213;-82
2022/04/26 12:05:22;;;;;;;3.55;2.40;;;15.90;99.90;;;;;;5075744;28;20281;-84
2022/04/26 12:07:50;;;;;;;3.08;1.80;;;15.60;99.90;;;;;;5077227;28;20193;-82
2022/04/26 12:10:28;;;;;;;5.87;2.33;;;15.40;99.90;;;;;;5066953;28;20206;-83
2022/04/26 12:13:01;;;;;;;3.00;1.80;;;15.60;99.90;;;;;;5056382;28;20202;-82
2022/04/26 12:15:30;;;;;;;1.63;1.52;;;15.70;99.90;;;;;;5057008;28;20202;-83
2022/04/26 12:18:14;;;;;;;3.55;2.17;;;15.90;99.90;;;;;;5063830;28;20300;-85
2022/04/26 12:21:00;;;;;;;2.85;1.95;;;15.90;99.90;;;;;;5076629;28;20193;-84
2022/04/26 12:23:28;;;;;;;4.78;2.35;;;15.80;99.90;;;;;;5076499;28;20585;-83
2022/04/26 12:25:56;;;;;;;5.85;2.28;;;15.80;99.90;;;;;;5075942;28;20205;-83
2022/04/26 12:28:23;;;;;;;4.53;2.28;;;15.80;99.90;;;;;;5076370;28;20592;-84
2022/04/26 12:30:50;;;;;;;3.75;2.17;;;15.90;99.90;;;;;;5065746;28;20194;-82
2022/04/26 12:33:30;;;;;;;6.05;2.00;;;15.90;99.90;;;;;;5056217;28;20222;-82
2022/04/26 12:36:00;;;;;;;2.88;1.80;;;16.10;99.90;;;;;;5065889;28;20657;-82
2022/04/26 12:38:27;;;;;;;6.30;2.47;;;16.30;99.90;;;;;;5076266;28;20225;-83
2022/04/26 12:41:05;;;;;;;3.17;1.90;;;16.30;99.90;;;;;;5075945;28;20209;-82
2022/04/26 12:43:33;;;;;;;2.78;1.80;;;16.20;99.90;;;;;;5076155;28;20250;-86
2022/04/26 12:46:02;;;;;;;2.63;1.83;;;16.00;99.90;;;;;;5076203;28;20201;-82
2022/04/26 12:51:20;;;;;;;2.65;2.17;;;15.90;99.90;;;;;;5076125;28;20216;-83
2022/04/26 12:53:48;;;;;;;2.65;1.88;;;15.80;99.90;;;;;;5057850;28;20216;-82
2022/04/26 12:56:16;;;;;;;2.97;2.17;;;15.80;99.90;;;;;;5062085;28;20220;-82
2022/04/26 12:58:44;;;;;;;4.60;2.08;;;15.90;99.90;;;;;;5076182;28;20217;-83
2022/04/26 13:01:12;;;;;;;3.65;1.90;;;16.00;99.90;;;;;;5075231;28;20229;-82
2022/04/26 13:03:40;;;;;;;5.50;1.88;;;16.10;99.90;;;;;;5075984;28;20205;-82
2022/04/26 13:06:10;;;;;;;4.25;2.00;;;16.00;99.90;;;;;;5075898;28;20284;-83
2022/04/26 13:08:40;;;;;;;2.92;1.88;;;15.90;99.90;;;;;;5075427;28;20212;-82
2022/04/26 13:11:07;;;;;;;4.35;2.10;;;15.90;99.90;;;;;;5075800;28;20204;-83
2022/04/26 13:13:36;;;;;;;3.15;1.80;;;16.00;99.90;;;;;;5075742;28;20274;-81
2022/04/26 13:16:04;;;;;;;5.45;2.15;;;16.10;99.90;;;;;;5075170;28;20200;-82
2022/04/26 13:18:31;;;;;;;4.60;2.45;;;15.90;99.90;;;;;;5075392;28;20225;-80
2022/04/26 13:20:58;;;;;;;3.35;2.08;;;15.70;99.90;;;;;;5075505;28;20205;-81
2022/04/26 13:23:25;;;;;;;2.97;1.80;;;15.70;99.90;;;;;;5066816;28;20288;-82
2022/04/26 13:25:55;;;;;;;3.92;2.20;;;15.70;99.90;;;;;;5055713;28;20193;-83
2022/04/26 13:28:22;;;;;;;5.60;2.33;;;15.50;99.90;;;;;;5063659;28;20236;-82
2022/04/26 13:30:49;;;;;;;3.22;2.00;;;15.40;99.90;;;;;;5075636;28;20293;-83
2022/04/26 13:33:16;;;;;;;2.30;2.10;;;15.50;99.90;;;;;;5074565;28;20691;-82
2022/04/26 13:35:43;;;;;;;4.93;2.33;;;15.60;99.90;;;;;;5074723;28;20193;-83
2022/04/26 13:38:11;;;;;;;4.38;2.22;;;15.80;99.90;;;;;;5074867;28;20221;-83
2022/04/26 13:40:39;;;;;;;7.07;2.50;;;15.80;99.90;;;;;;5076009;28;20201;-83
2022/04/26 13:43:08;;;;;;;3.55;2.58;;;15.70;99.90;;;;;;5074783;28;20209;-83
2022/04/26 13:45:36;;;;;;;3.50;2.45;;;15.70;99.90;;;;;;5075380;28;20541;-82
2022/04/26 13:48:09;;;;;;;3.47;2.25;;;15.60;99.90;;;;;;5075479;28;20196;-82
2022/04/26 13:50:36;;;;;;;4.50;2.57;;;15.30;99.90;;;;;;5063122;28;20561;-84
2022/04/26 13:53:04;;;;;;;4.63;2.10;;;15.20;99.90;;;;;;5055641;28;20205;-81
2022/04/26 13:55:31;;;;;;;4.37;1.93;;;14.90;99.90;;;;;;5055422;28;20194;-83
2022/04/26 13:57:57;;;;;;;5.03;2.30;;;15.00;99.90;;;;;;5058722;28;20220;-82
2022/04/26 14:00:26;;;;;;;2.77;1.90;;;14.80;99.90;;;;;;5074016;28;20225;-82
2022/04/26 14:02:53;;;;;;;2.67;2.00;;;14.80;99.90;;;;;;5075229;28;20228;-82
2022/04/26 14:05:23;;;;;;;6.37;2.30;;;14.90;99.90;;;;;;5061487;28;20289;-82
2022/04/26 14:07:50;;;;;;;3.23;2.10;;;14.80;99.90;;;;;;5055297;28;20190;-82
2022/04/26 14:10:18;;;;;;;3.90;2.20;;;14.80;99.90;;;;;;5054957;28;20198;-80
2022/04/26 14:12:45;;;;;;;2.90;2.03;;;15.00;99.90;;;;;;5055039;28;20243;-82
2022/04/26 14:23:30;;;;;;;3.80;2.30;;;14.50;99.90;;;;;;5055237;28;20312;-80
2022/04/26 14:25:56;;;;;;;2.83;2.00;;;14.60;99.90;;;;;;5055751;28;20206;-81
2022/04/26 14:28:23;;;;;;;5.93;2.43;;;14.60;99.90;;;;;;5059134;28;20194;-82
2022/04/26 14:30:50;;;;;;;2.07;1.87;;;14.70;99.90;;;;;;5079087;28;20209;-82
2022/04/26 14:33:19;;;;;;;4.23;2.23;;;14.60;99.90;;;;;;5076595;28;20666;-82
2022/04/26 14:35:45;;;;;;;2.33;2.00;;;14.50;99.90;;;;;;5078612;28;20205;-80
2022/04/26 14:38:12;;;;;;;3.57;2.37;;;14.60;99.90;;;;;;5078337;28;20232;-82
2022/04/26 14:40:39;;;;;;;4.40;2.80;;;14.60;99.90;;;;;;5078293;28;20624;-81
2022/04/26 14:43:09;;;;;;;3.87;2.60;;;14.60;99.90;;;;;;5069329;28;20217;-81
2022/04/26 14:45:45;;;;;;;5.30;2.83;;;14.60;99.90;;;;;;5059664;28;20252;-81
2022/04/26 14:48:14;;;;;;;6.20;2.70;;;14.50;99.90;;;;;;5059188;28;20263;-81
2022/04/26 14:50:43;;;;;;;8.17;3.30;;;14.60;99.90;;;;;;5058959;28;20593;-81
2022/04/26 14:53:11;;;;;;;5.67;2.70;;;14.50;99.90;;;;;;5073834;28;20217;-82
2022/04/26 14:55:38;;;;;;;5.10;3.27;;;14.40;99.90;;;;;;5079734;28;20205;-82
2022/04/26 14:58:06;;;;;;;9.30;2.50;;;14.30;99.90;;;;;;5082114;28;20555;-82
2022/04/26 15:00:35;;;;;;;6.23;3.40;;;14.20;99.90;;;;;;5083367;28;20327;-79
2022/04/26 15:03:03;;;;;;;6.67;2.87;;;14.30;99.90;;;;;;5084243;28;20197;-81
2022/04/26 15:05:30;;;;;;;5.07;2.50;;;14.40;99.90;;;;;;5082416;28;20201;-81
2022/04/26 15:18:37;;;;;;;5.57;2.37;;;14.30;99.90;;;;;;5118393;28;20237;-81
2022/04/26 15:21:04;;;;;;;5.57;2.20;;;14.30;99.90;;;;;;5115820;28;20327;-80
2022/04/26 15:23:33;;;;;;;4.77;2.30;;;14.30;99.90;;;;;;5118248;28;20200;-81
2022/04/26 15:26:00;;;;;;;5.17;2.33;;;14.30;99.90;;;;;;5118262;28;20227;-81
2022/04/26 15:28:30;;;;;;;7.00;2.20;;;14.40;99.90;;;;;;5117249;28;20196;-79
2022/04/26 15:30:57;;;;;;;3.23;2.47;;;14.30;99.90;;;;;;5117668;28;20203;-81
2022/04/26 15:33:24;;;;;;;4.90;2.50;;;14.30;99.90;;;;;;5117938;28;20220;-80
2022/04/26 15:35:51;;;;;;;5.27;2.40;;;14.20;99.90;;;;;;5117504;28;20204;-82
2022/04/26 15:38:18;;;;;;;5.97;2.37;;;14.20;99.90;;;;;;5111822;28;20222;-82
2022/04/26 15:40:47;;;;;;;5.73;2.40;;;14.20;99.90;;;;;;5082077;28;20209;-83
2022/04/26 15:43:15;;;;;;;4.03;2.03;;;14.10;99.90;;;;;;5079152;28;20574;-82
2022/04/26 15:45:43;;;;;;;3.37;2.30;;;14.00;99.90;;;;;;5097309;28;20608;-82
2022/04/26 15:48:12;;;;;;;5.40;2.33;;;13.90;99.90;;;;;;5097605;28;20600;-86
2022/04/26 15:50:42;;;;;;;3.53;2.07;;;13.90;99.90;;;;;;5096933;28;20193;-82
2022/04/26 15:53:09;;;;;;;6.33;2.47;;;13.90;99.90;;;;;;5097400;28;20224;-82
2022/04/26 15:55:36;;;;;;;4.47;2.30;;;13.90;99.90;;;;;;5097347;28;20494;-81
2022/04/26 15:58:04;;;;;;;4.40;2.20;;;14.10;99.90;;;;;;5105056;28;20341;-80
2022/04/26 16:00:32;;;;;;;6.80;2.40;;;14.00;99.90;;;;;;5117544;28;20748;-82
2022/04/26 16:02:59;;;;;;;4.57;2.00;;;14.00;99.90;;;;;;5089242;28;20709;-83
2022/04/26 16:05:26;;;;;;;5.80;2.87;;;13.90;99.90;;;;;;5065804;28;20262;-84
2022/04/26 16:07:53;;;;;;;4.93;2.10;;;13.80;99.90;;;;;;5094111;28;20225;-82
2022/04/26 16:21:31;;;;;;;3.33;1.83;;;13.40;99.90;;;;;;5054827;28;20820;-82
2022/04/26 16:24:00;;;;;;;5.37;1.83;;;13.40;99.90;;;;;;5083121;28;20196;-81
2022/04/26 16:26:27;;;;;;;5.97;2.47;;;13.30;99.90;;;;;;5077610;28;20482;-82
2022/04/26 16:28:56;;;;;;;5.77;2.33;;;13.20;99.90;;;;;;5092403;28;20210;-80
2022/04/26 16:31:28;;;;;;;4.10;2.13;;;13.10;99.90;;;;;;5085143;28;20208;-81
2022/04/26 16:33:55;;;;;;;5.70;2.07;;;13.00;99.90;;;;;;5117267;28;20192;-82
2022/04/26 16:36:22;;;;;;;4.23;1.83;;;13.00;99.90;;;;;;5112576;28;20507;-81
2022/04/26 16:38:49;;;;;;;7.17;3.87;;;12.80;99.90;;;;;;5096057;28;20224;-83
2022/04/26 16:41:16;;;;;;;4.47;2.33;;;12.70;99.90;;;;;;5106488;28;20591;-83
2022/04/26 16:43:44;;;;;;;5.30;2.20;;;12.70;99.90;;;;;;5117195;28;20517;-83
2022/04/26 16:46:14;;;;;;;6.93;3.47;;;12.70;99.90;;;;;;5116573;28;20241;-82
2022/04/26 16:48:41;;;;;;;7.03;3.30;;;12.60;99.90;;;;;;5116747;28;20196;-82
2022/04/26 16:51:08;;;;;;;6.90;2.67;;;12.60;99.90;;;;;;5097039;28;20216;-88
2022/04/26 16:53:35;;;;;;;4.83;2.53;;;12.40;99.90;;;;;;5095779;28;20211;-84
2022/04/26 16:56:03;;;;;;;7.00;2.90;;;12.40;99.90;;;;;;5093951;28;20225;-83
2022/04/26 16:58:30;;;;;;;3.07;2.40;;;12.30;99.90;;;;;;5105429;28;20310;-82
2022/04/26 17:00:57;;;;;;;3.67;2.00;;;12.30;99.90;;;;;;5116157;28;20200;-84
2022/04/26 17:03:26;;;;;;;5.57;2.40;;;12.40;99.90;;;;;;5116249;28;20207;-83
2022/04/26 17:05:53;;;;;;;3.47;1.83;;;12.40;99.90;;;;;;5101996;28;20244;-82
2022/04/26 17:08:21;;;;;;;6.80;2.10;;;12.40;99.90;;;;;;5095721;28;20197;-83
2022/04/26 17:10:48;;;;;;;3.87;2.10;;;12.40;99.90;;;;;;5095796;28;20205;-82
2022/04/26 17:13:16;;;;;;;5.43;2.13;;;12.40;99.90;;;;;;5095981;28;20197;-83
2022/04/26 17:15:43;;;;;;;4.87;2.20;;;12.40;99.90;;;;;;5095455;28;20189;-84
2022/04/26 17:18:11;;;;;;;3.83;2.03;;;12.40;99.90;;;;;;5112192;28;20265;-84
2022/04/26 17:20:39;;;;;;;3.80;2.60;;;12.30;99.90;;;;;;5115722;28;20200;-82